Aviation Digital Data Service (ADDS)

Output produced by METARs form (1214 UTC 25 June 2019)
found at http://www.aviationweather.gov/metar/data/
 
METAR text: RJNK 251200Z 06004KT 9999 FEW040 20/17 Q1017
Conditions at: RJNK (KOMATSU (CIV/JAS, JP) observed 1200 UTC 25 June 2019
Temperature: 20.0°C (68°F)
Dewpoint: 17.0°C (63°F) [RH = 83%]
Pressure (altimeter): 30.03 inches Hg (1017.0 mb)
Winds: from the ENE (60 degrees) at 5 MPH (4 knots; 2.1 m/s)
Visibility: 6 or more miles (10+ km)
Ceiling: at least 12,000 feet AGL
Clouds: few clouds at 4000 feet AGL
Weather: no significant weather observed at this time

METAR text: RJNK 251100Z 04006KT 9999 FEW040 21/16 Q1017
Conditions at: RJNK (KOMATSU (CIV/JAS, JP) observed 1100 UTC 25 June 2019
Temperature: 21.0°C (70°F)
Dewpoint: 16.0°C (61°F) [RH = 73%]
Pressure (altimeter): 30.03 inches Hg (1017.0 mb)
Winds: from the NE (40 degrees) at 7 MPH (6 knots; 3.1 m/s)
Visibility: 6 or more miles (10+ km)
Ceiling: at least 12,000 feet AGL
Clouds: few clouds at 4000 feet AGL
Weather: no significant weather observed at this time

METAR text: RJNK 251000Z 01007KT 9999 FEW040 22/16 Q1016
Conditions at: RJNK (KOMATSU (CIV/JAS, JP) observed 1000 UTC 25 June 2019
Temperature: 22.0°C (72°F)
Dewpoint: 16.0°C (61°F) [RH = 69%]
Pressure (altimeter): 30.00 inches Hg (1016.0 mb)
Winds: from the N (10 degrees) at 8 MPH (7 knots; 3.6 m/s)
Visibility: 6 or more miles (10+ km)
Ceiling: at least 12,000 feet AGL
Clouds: few clouds at 4000 feet AGL
Weather: no significant weather observed at this time

METAR text: RJNK 250900Z 36008KT 9999 FEW020 23/17 Q1016
Conditions at: RJNK (KOMATSU (CIV/JAS, JP) observed 0900 UTC 25 June 2019
Temperature: 23.0°C (73°F)
Dewpoint: 17.0°C (63°F) [RH = 69%]
Pressure (altimeter): 30.00 inches Hg (1016.0 mb)
Winds: from the N (360 degrees) at 9 MPH (8 knots; 4.1 m/s)
Visibility: 6 or more miles (10+ km)
Ceiling: at least 12,000 feet AGL
Clouds: few clouds at 2000 feet AGL
Weather: no significant weather observed at this time

METAR text: RJNK 250800Z 36006KT 9999 FEW020 23/17 Q1016
Conditions at: RJNK (KOMATSU (CIV/JAS, JP) observed 0800 UTC 25 June 2019
Temperature: 23.0°C (73°F)
Dewpoint: 17.0°C (63°F) [RH = 69%]
Pressure (altimeter): 30.00 inches Hg (1016.0 mb)
Winds: from the N (360 degrees) at 7 MPH (6 knots; 3.1 m/s)
Visibility: 6 or more miles (10+ km)
Ceiling: at least 12,000 feet AGL
Clouds: few clouds at 2000 feet AGL
Weather: no significant weather observed at this time

METAR text: RJNK 250700Z 35007KT 300V020 9999 FEW020 23/16 Q1016
Conditions at: RJNK (KOMATSU (CIV/JAS, JP) observed 0700 UTC 25 June 2019
Temperature: 23.0°C (73°F)
Dewpoint: 16.0°C (61°F) [RH = 65%]
Pressure (altimeter): 30.00 inches Hg (1016.0 mb)
Winds: from the N (350 degrees) at 8 MPH (7 knots; 3.6 m/s)
Visibility: 6 or more miles (10+ km)
Ceiling: at least 12,000 feet AGL
Clouds: few clouds at 2000 feet AGL
Weather: no significant weather observed at this time

METAR text: RJNK 250600Z 35008KT 310V020 9999 FEW008 23/16 Q1016
Conditions at: RJNK (KOMATSU (CIV/JAS, JP) observed 0600 UTC 25 June 2019
Temperature: 23.0°C (73°F)
Dewpoint: 16.0°C (61°F) [RH = 65%]
Pressure (altimeter): 30.00 inches Hg (1016.0 mb)
Winds: from the N (350 degrees) at 9 MPH (8 knots; 4.1 m/s)
Visibility: 6 or more miles (10+ km)
Ceiling: at least 12,000 feet AGL
Clouds: few clouds at 800 feet AGL
Weather: no significant weather observed at this time

METAR text: RJNK 250500Z 33006KT 290V020 9999 FEW008 24/16 Q1016
Conditions at: RJNK (KOMATSU (CIV/JAS, JP) observed 0500 UTC 25 June 2019
Temperature: 24.0°C (75°F)
Dewpoint: 16.0°C (61°F) [RH = 61%]
Pressure (altimeter): 30.00 inches Hg (1016.0 mb)
Winds: from the NNW (330 degrees) at 7 MPH (6 knots; 3.1 m/s)
Visibility: 6 or more miles (10+ km)
Ceiling: at least 12,000 feet AGL
Clouds: few clouds at 800 feet AGL
Weather: no significant weather observed at this time

METAR text: RJNK 250400Z 32008KT 290V360 9999 FEW008 23/17 Q1017
Conditions at: RJNK (KOMATSU (CIV/JAS, JP) observed 0400 UTC 25 June 2019
Temperature: 23.0°C (73°F)
Dewpoint: 17.0°C (63°F) [RH = 69%]
Pressure (altimeter): 30.03 inches Hg (1017.0 mb)
Winds: from the NW (320 degrees) at 9 MPH (8 knots; 4.1 m/s)
Visibility: 6 or more miles (10+ km)
Ceiling: at least 12,000 feet AGL
Clouds: few clouds at 800 feet AGL
Weather: no significant weather observed at this time

METAR text: RJNK 250300Z 31009KT 280V340 9999 FEW008 23/17 Q1017
Conditions at: RJNK (KOMATSU (CIV/JAS, JP) observed 0300 UTC 25 June 2019
Temperature: 23.0°C (73°F)
Dewpoint: 17.0°C (63°F) [RH = 69%]
Pressure (altimeter): 30.03 inches Hg (1017.0 mb)
Winds: from the NW (310 degrees) at 10 MPH (9 knots; 4.6 m/s)
Visibility: 6 or more miles (10+ km)
Ceiling: at least 12,000 feet AGL
Clouds: few clouds at 800 feet AGL
Weather: no significant weather observed at this time

METAR text: RJNK 250200Z 32008KT 280V350 9999 FEW008 23/15 Q1017
Conditions at: RJNK (KOMATSU (CIV/JAS, JP) observed 0200 UTC 25 June 2019
Temperature: 23.0°C (73°F)
Dewpoint: 15.0°C (59°F) [RH = 61%]
Pressure (altimeter): 30.03 inches Hg (1017.0 mb)
Winds: from the NW (320 degrees) at 9 MPH (8 knots; 4.1 m/s)
Visibility: 6 or more miles (10+ km)
Ceiling: at least 12,000 feet AGL
Clouds: few clouds at 800 feet AGL
Weather: no significant weather observed at this time

METAR text: RJNK 250100Z 30007KT 260V350 9999 FEW020 23/14 Q1017
Conditions at: RJNK (KOMATSU (CIV/JAS, JP) observed 0100 UTC 25 June 2019
Temperature: 23.0°C (73°F)
Dewpoint: 14.0°C (57°F) [RH = 57%]
Pressure (altimeter): 30.03 inches Hg (1017.0 mb)
Winds: from the WNW (300 degrees) at 8 MPH (7 knots; 3.6 m/s)
Visibility: 6 or more miles (10+ km)
Ceiling: at least 12,000 feet AGL
Clouds: few clouds at 2000 feet AGL
Weather: no significant weather observed at this time

METAR text: RJNK 250000Z 30006KT 260V350 9999 FEW020 23/15 Q1017
Conditions at: RJNK (KOMATSU (CIV/JAS, JP) observed 0000 UTC 25 June 2019
Temperature: 23.0°C (73°F)
Dewpoint: 15.0°C (59°F) [RH = 61%]
Pressure (altimeter): 30.03 inches Hg (1017.0 mb)
Winds: from the WNW (300 degrees) at 7 MPH (6 knots; 3.1 m/s)
Visibility: 6 or more miles (10+ km)
Ceiling: at least 12,000 feet AGL
Clouds: few clouds at 2000 feet AGL
Weather: no significant weather observed at this time

METAR text: RJNK 242300Z 29004KT 230V340 9999 FEW020 22/15 Q1017
Conditions at: RJNK (KOMATSU (CIV/JAS, JP) observed 2300 UTC 24 June 2019
Temperature: 22.0°C (72°F)
Dewpoint: 15.0°C (59°F) [RH = 65%]
Pressure (altimeter): 30.03 inches Hg (1017.0 mb)
Winds: from the WNW (290 degrees) at 5 MPH (4 knots; 2.1 m/s)
Visibility: 6 or more miles (10+ km)
Ceiling: at least 12,000 feet AGL
Clouds: few clouds at 2000 feet AGL
Weather: no significant weather observed at this time

METAR text: RJNK 242200Z 14004KT 9999 FEW020 21/15 Q1017
Conditions at: RJNK (KOMATSU (CIV/JAS, JP) observed 2200 UTC 24 June 2019
Temperature: 21.0°C (70°F)
Dewpoint: 15.0°C (59°F) [RH = 69%]
Pressure (altimeter): 30.03 inches Hg (1017.0 mb)
Winds: from the SE (140 degrees) at 5 MPH (4 knots; 2.1 m/s)
Visibility: 6 or more miles (10+ km)
Ceiling: at least 12,000 feet AGL
Clouds: few clouds at 2000 feet AGL
Weather: no significant weather observed at this time

METAR text: RJNK 242100Z VRB01KT 9999 FEW020 SCT040 20/16 Q1017
Conditions at: RJNK (KOMATSU (CIV/JAS, JP) observed 2100 UTC 24 June 2019
Temperature: 20.0°C (68°F)
Dewpoint: 16.0°C (61°F) [RH = 78%]
Pressure (altimeter): 30.03 inches Hg (1017.0 mb)
Winds: variable direction winds at 1 MPH (1 knots; 0.5 m/s)
Visibility: 6 or more miles (10+ km)
Ceiling: at least 12,000 feet AGL
Clouds: few clouds at 2000 feet AGL
scattered clouds at 4000 feet AGL
Weather: no significant weather observed at this time

METAR text: RJNK 242000Z 00000KT 9999 FEW020 SCT030 BKN040 19/16 Q1017
Conditions at: RJNK (KOMATSU (CIV/JAS, JP) observed 2000 UTC 24 June 2019
Temperature: 19.0°C (66°F)
Dewpoint: 16.0°C (61°F) [RH = 83%]
Pressure (altimeter): 30.03 inches Hg (1017.0 mb)
Winds: calm
Visibility: 6 or more miles (10+ km)
Ceiling: 4000 feet AGL
Clouds: few clouds at 2000 feet AGL
scattered clouds at 3000 feet AGL
broken clouds at 4000 feet AGL
Weather: no significant weather observed at this time

METAR text: RJNK 241900Z 19005KT 9999 FEW020 SCT030 BKN040 19/16 Q1016
Conditions at: RJNK (KOMATSU (CIV/JAS, JP) observed 1900 UTC 24 June 2019
Temperature: 19.0°C (66°F)
Dewpoint: 16.0°C (61°F) [RH = 83%]
Pressure (altimeter): 30.00 inches Hg (1016.0 mb)
Winds: from the S (190 degrees) at 6 MPH (5 knots; 2.6 m/s)
Visibility: 6 or more miles (10+ km)
Ceiling: 4000 feet AGL
Clouds: few clouds at 2000 feet AGL
scattered clouds at 3000 feet AGL
broken clouds at 4000 feet AGL
Weather: no significant weather observed at this time

METAR text: RJNK 241800Z 21004KT 9999 FEW020 SCT030 BKN040 19/16 Q1016
Conditions at: RJNK (KOMATSU (CIV/JAS, JP) observed 1800 UTC 24 June 2019
Temperature: 19.0°C (66°F)
Dewpoint: 16.0°C (61°F) [RH = 83%]
Pressure (altimeter): 30.00 inches Hg (1016.0 mb)
Winds: from the SSW (210 degrees) at 5 MPH (4 knots; 2.1 m/s)
Visibility: 6 or more miles (10+ km)
Ceiling: 4000 feet AGL
Clouds: few clouds at 2000 feet AGL
scattered clouds at 3000 feet AGL
broken clouds at 4000 feet AGL
Weather: no significant weather observed at this time

METAR text: RJNK 241700Z 19007KT 9999 FEW020 SCT030 BKN040 18/16 Q1016
Conditions at: RJNK (KOMATSU (CIV/JAS, JP) observed 1700 UTC 24 June 2019
Temperature: 18.0°C (64°F)
Dewpoint: 16.0°C (61°F) [RH = 88%]
Pressure (altimeter): 30.00 inches Hg (1016.0 mb)
Winds: from the S (190 degrees) at 8 MPH (7 knots; 3.6 m/s)
Visibility: 6 or more miles (10+ km)
Ceiling: 4000 feet AGL
Clouds: few clouds at 2000 feet AGL
scattered clouds at 3000 feet AGL
broken clouds at 4000 feet AGL
Weather: no significant weather observed at this time

METAR text: RJNK 241600Z 19005KT 9999 FEW020 SCT030 BKN040 19/16 Q1016
Conditions at: RJNK (KOMATSU (CIV/JAS, JP) observed 1600 UTC 24 June 2019
Temperature: 19.0°C (66°F)
Dewpoint: 16.0°C (61°F) [RH = 83%]
Pressure (altimeter): 30.00 inches Hg (1016.0 mb)
Winds: from the S (190 degrees) at 6 MPH (5 knots; 2.6 m/s)
Visibility: 6 or more miles (10+ km)
Ceiling: 4000 feet AGL
Clouds: few clouds at 2000 feet AGL
scattered clouds at 3000 feet AGL
broken clouds at 4000 feet AGL
Weather: no significant weather observed at this time

METAR text: RJNK 241500Z 20004KT 9999 FEW020 SCT040 19/17 Q1016
Conditions at: RJNK (KOMATSU (CIV/JAS, JP) observed 1500 UTC 24 June 2019
Temperature: 19.0°C (66°F)
Dewpoint: 17.0°C (63°F) [RH = 88%]
Pressure (altimeter): 30.00 inches Hg (1016.0 mb)
Winds: from the SSW (200 degrees) at 5 MPH (4 knots; 2.1 m/s)
Visibility: 6 or more miles (10+ km)
Ceiling: at least 12,000 feet AGL
Clouds: few clouds at 2000 feet AGL
scattered clouds at 4000 feet AGL
Weather: no significant weather observed at this time

METAR text: RJNK 241400Z 21005KT 9999 FEW020 SCT030 BKN040 20/17 Q1015
Conditions at: RJNK (KOMATSU (CIV/JAS, JP) observed 1400 UTC 24 June 2019
Temperature: 20.0°C (68°F)
Dewpoint: 17.0°C (63°F) [RH = 83%]
Pressure (altimeter): 29.97 inches Hg (1015.0 mb)
Winds: from the SSW (210 degrees) at 6 MPH (5 knots; 2.6 m/s)
Visibility: 6 or more miles (10+ km)
Ceiling: 4000 feet AGL
Clouds: few clouds at 2000 feet AGL
scattered clouds at 3000 feet AGL
broken clouds at 4000 feet AGL
Weather: no significant weather observed at this time

METAR text: RJNK 241300Z 23004KT 9999 FEW020 BKN040 20/17 Q1015
Conditions at: RJNK (KOMATSU (CIV/JAS, JP) observed 1300 UTC 24 June 2019
Temperature: 20.0°C (68°F)
Dewpoint: 17.0°C (63°F) [RH = 83%]
Pressure (altimeter): 29.97 inches Hg (1015.0 mb)
Winds: from the SW (230 degrees) at 5 MPH (4 knots; 2.1 m/s)
Visibility: 6 or more miles (10+ km)
Ceiling: 4000 feet AGL
Clouds: few clouds at 2000 feet AGL
broken clouds at 4000 feet AGL
Weather: no significant weather observed at this time

METAR text: RJNK 241200Z 21004KT 9999 FEW020 SCT030 BKN040 20/16 Q1015
Conditions at: RJNK (KOMATSU (CIV/JAS, JP) observed 1200 UTC 24 June 2019
Temperature: 20.0°C (68°F)
Dewpoint: 16.0°C (61°F) [RH = 78%]
Pressure (altimeter): 29.97 inches Hg (1015.0 mb)
Winds: from the SSW (210 degrees) at 5 MPH (4 knots; 2.1 m/s)
Visibility: 6 or more miles (10+ km)
Ceiling: 4000 feet AGL
Clouds: few clouds at 2000 feet AGL
scattered clouds at 3000 feet AGL
broken clouds at 4000 feet AGL
Weather: no significant weather observed at this time

METAR text: RJNK 241100Z 29006KT 9999 FEW020 BKN040 20/16 Q1014
Conditions at: RJNK (KOMATSU (CIV/JAS, JP) observed 1100 UTC 24 June 2019
Temperature: 20.0°C (68°F)
Dewpoint: 16.0°C (61°F) [RH = 78%]
Pressure (altimeter): 29.94 inches Hg (1014.0 mb)
Winds: from the WNW (290 degrees) at 7 MPH (6 knots; 3.1 m/s)
Visibility: 6 or more miles (10+ km)
Ceiling: 4000 feet AGL
Clouds: few clouds at 2000 feet AGL
broken clouds at 4000 feet AGL
Weather: no significant weather observed at this time

METAR text: RJNK 241000Z 30006KT 270V330 9999 FEW020 BKN030 BKN080 21/16 Q1014
Conditions at: RJNK (KOMATSU (CIV/JAS, JP) observed 1000 UTC 24 June 2019
Temperature: 21.0°C (70°F)
Dewpoint: 16.0°C (61°F) [RH = 73%]
Pressure (altimeter): 29.94 inches Hg (1014.0 mb)
Winds: from the WNW (300 degrees) at 7 MPH (6 knots; 3.1 m/s)
Visibility: 6 or more miles (10+ km)
Ceiling: 3000 feet AGL
Clouds: few clouds at 2000 feet AGL
broken clouds at 3000 feet AGL
broken clouds at 8000 feet AGL
Weather: no significant weather observed at this time

METAR text: RJNK 240900Z 29006KT 260V320 9999 FEW020 BKN080 21/17 Q1013
Conditions at: RJNK (KOMATSU (CIV/JAS, JP) observed 0900 UTC 24 June 2019
Temperature: 21.0°C (70°F)
Dewpoint: 17.0°C (63°F) [RH = 78%]
Pressure (altimeter): 29.91 inches Hg (1013.0 mb)
Winds: from the WNW (290 degrees) at 7 MPH (6 knots; 3.1 m/s)
Visibility: 6 or more miles (10+ km)
Ceiling: 8000 feet AGL
Clouds: few clouds at 2000 feet AGL
broken clouds at 8000 feet AGL
Weather: no significant weather observed at this time

METAR text: RJNK 240800Z 29007KT 270V330 9999 FEW020 SCT080 21/16 Q1012
Conditions at: RJNK (KOMATSU (CIV/JAS, JP) observed 0800 UTC 24 June 2019
Temperature: 21.0°C (70°F)
Dewpoint: 16.0°C (61°F) [RH = 73%]
Pressure (altimeter): 29.88 inches Hg (1012.0 mb)
Winds: from the WNW (290 degrees) at 8 MPH (7 knots; 3.6 m/s)
Visibility: 6 or more miles (10+ km)
Ceiling: at least 12,000 feet AGL
Clouds: few clouds at 2000 feet AGL
scattered clouds at 8000 feet AGL
Weather: no significant weather observed at this time

METAR text: RJNK 240700Z 29007KT 260V330 9999 FEW020 SCT050 22/16 Q1012
Conditions at: RJNK (KOMATSU (CIV/JAS, JP) observed 0700 UTC 24 June 2019
Temperature: 22.0°C (72°F)
Dewpoint: 16.0°C (61°F) [RH = 69%]
Pressure (altimeter): 29.88 inches Hg (1012.0 mb)
Winds: from the WNW (290 degrees) at 8 MPH (7 knots; 3.6 m/s)
Visibility: 6 or more miles (10+ km)
Ceiling: at least 12,000 feet AGL
Clouds: few clouds at 2000 feet AGL
scattered clouds at 5000 feet AGL
Weather: no significant weather observed at this time

METAR text: RJNK 240600Z 30008KT 250V320 9999 FEW020 SCT050 22/16 Q1012
Conditions at: RJNK (KOMATSU (CIV/JAS, JP) observed 0600 UTC 24 June 2019
Temperature: 22.0°C (72°F)
Dewpoint: 16.0°C (61°F) [RH = 69%]
Pressure (altimeter): 29.88 inches Hg (1012.0 mb)
Winds: from the WNW (300 degrees) at 9 MPH (8 knots; 4.1 m/s)
Visibility: 6 or more miles (10+ km)
Ceiling: at least 12,000 feet AGL
Clouds: few clouds at 2000 feet AGL
scattered clouds at 5000 feet AGL
Weather: no significant weather observed at this time

METAR text: RJNK 240500Z 30008KT 260V330 9999 FEW020 SCT080 BKN100 23/16 Q1011
Conditions at: RJNK (KOMATSU (CIV/JAS, JP) observed 0500 UTC 24 June 2019
Temperature: 23.0°C (73°F)
Dewpoint: 16.0°C (61°F) [RH = 65%]
Pressure (altimeter): 29.85 inches Hg (1011.0 mb)
Winds: from the WNW (300 degrees) at 9 MPH (8 knots; 4.1 m/s)
Visibility: 6 or more miles (10+ km)
Ceiling: 10000 feet AGL
Clouds: few clouds at 2000 feet AGL
scattered clouds at 8000 feet AGL
broken clouds at 10000 feet AGL
Weather: no significant weather observed at this time

METAR text: RJNK 240400Z 28009KT 250V310 9999 FEW015 SCT080 BKN100 22/16 Q1011
Conditions at: RJNK (KOMATSU (CIV/JAS, JP) observed 0400 UTC 24 June 2019
Temperature: 22.0°C (72°F)
Dewpoint: 16.0°C (61°F) [RH = 69%]
Pressure (altimeter): 29.85 inches Hg (1011.0 mb)
Winds: from the W (280 degrees) at 10 MPH (9 knots; 4.6 m/s)
Visibility: 6 or more miles (10+ km)
Ceiling: 10000 feet AGL
Clouds: few clouds at 1500 feet AGL
scattered clouds at 8000 feet AGL
broken clouds at 10000 feet AGL
Weather: no significant weather observed at this time

METAR text: RJNK 240300Z 29008KT 260V320 9999 FEW015 SCT050 BKN100 22/16 Q1011
Conditions at: RJNK (KOMATSU (CIV/JAS, JP) observed 0300 UTC 24 June 2019
Temperature: 22.0°C (72°F)
Dewpoint: 16.0°C (61°F) [RH = 69%]
Pressure (altimeter): 29.85 inches Hg (1011.0 mb)
Winds: from the WNW (290 degrees) at 9 MPH (8 knots; 4.1 m/s)
Visibility: 6 or more miles (10+ km)
Ceiling: 10000 feet AGL
Clouds: few clouds at 1500 feet AGL
scattered clouds at 5000 feet AGL
broken clouds at 10000 feet AGL
Weather: no significant weather observed at this time

METAR text: RJNK 240200Z 31008KT 280V340 9999 FEW015 SCT050 22/16 Q1011
Conditions at: RJNK (KOMATSU (CIV/JAS, JP) observed 0200 UTC 24 June 2019
Temperature: 22.0°C (72°F)
Dewpoint: 16.0°C (61°F) [RH = 69%]
Pressure (altimeter): 29.85 inches Hg (1011.0 mb)
Winds: from the NW (310 degrees) at 9 MPH (8 knots; 4.1 m/s)
Visibility: 6 or more miles (10+ km)
Ceiling: at least 12,000 feet AGL
Clouds: few clouds at 1500 feet AGL
scattered clouds at 5000 feet AGL
Weather: no significant weather observed at this time

METAR text: RJNK 240100Z 32006KT 260V360 9999 FEW015 SCT050 22/17 Q1010
Conditions at: RJNK (KOMATSU (CIV/JAS, JP) observed 0100 UTC 24 June 2019
Temperature: 22.0°C (72°F)
Dewpoint: 17.0°C (63°F) [RH = 73%]
Pressure (altimeter): 29.82 inches Hg (1010.0 mb)
Winds: from the NW (320 degrees) at 7 MPH (6 knots; 3.1 m/s)
Visibility: 6 or more miles (10+ km)
Ceiling: at least 12,000 feet AGL
Clouds: few clouds at 1500 feet AGL
scattered clouds at 5000 feet AGL
Weather: no significant weather observed at this time

Forecast for: RJNK (KOMATSU (CIV/JAS, JP)
Text: TAF RJNK 251105Z 2512/2618 06006KT 9999 FEW030
Forecast period: 1200 to 1300 UTC 25 June 2019
Forecast type: FROM: standard forecast or significant change
Winds: from the ENE (60 degrees) at 7 MPH (6 knots; 3.1 m/s)
Visibility: 6 or more miles 10+ km)
Ceiling: at least 12,000 feet AGL
Clouds: few clouds at 3000 feet AGL
Weather: no significant weather forecast for this period
Text: BECMG 2513/2515 16004KT
Forecast period: 1300 to 2200 UTC 25 June 2019
Forecast type: BECOMING: Conditions expected to become as follows by 1500 UTC 25 June 2019
Winds: from the SSE (160 degrees) at 5 MPH (4 knots; 2.1 m/s)
Visibility: 6 or more miles 10+ km)
Ceiling: at least 12,000 feet AGL
Clouds: few clouds at 3000 feet AGL
Weather: no significant weather forecast for this period
Text: BECMG 2522/2600 34006KT
Forecast period: 2200 UTC 25 June 2019 to 0900 UTC 26 June 2019
Forecast type: BECOMING: Conditions expected to become as follows by 0000 UTC 26 June 2019
Winds: from the NNW (340 degrees) at 7 MPH (6 knots; 3.1 m/s)
Visibility: 6 or more miles 10+ km)
Ceiling: at least 12,000 feet AGL
Clouds: few clouds at 3000 feet AGL
Weather: no significant weather forecast for this period
Text: BECMG 2609/2612 18006KT
Forecast period: 0900 to 1800 UTC 26 June 2019
Forecast type: BECOMING: Conditions expected to become as follows by 1200 UTC 26 June 2019
Winds: from the S (180 degrees) at 7 MPH (6 knots; 3.1 m/s)
Visibility: 6 or more miles 10+ km)
Ceiling: at least 12,000 feet AGL
Clouds: few clouds at 3000 feet AGL
Weather: no significant weather forecast for this period